Time;durP1;ratioP1;P1;durP2;ratioP2;P2;SDS_P1;SDS_P2;PMS_P1;PMS_P2;Temp;Humidity;BMP_temperature;BMP_pressure;BME280_temperature;BME280_humidity;BME280_pressure;Samples;Min_cycle;Max_cycle;Signal;HPM_P1;HPM_P2
2020/12/05 00:00:52;;;;;;;1.90;0.90;;;5.90;99.90;;;;;;10362307;28;20218;-73
2020/12/05 00:05:54;;;;;;;0.40;0.37;;;6.00;99.90;;;;;;10366325;28;20205;-72
2020/12/05 00:10:58;;;;;;;0.20;0.20;;;6.10;99.90;;;;;;10365273;28;20218;-72
2020/12/05 00:16:00;;;;;;;0.77;0.77;;;6.10;99.90;;;;;;10365294;28;20199;-72
2020/12/05 00:21:05;;;;;;;0.40;0.40;;;6.30;99.90;;;;;;10364447;28;20214;-72
2020/12/05 00:26:08;;;;;;;0.27;0.27;;;5.90;99.90;;;;;;10364942;28;20214;-73
2020/12/05 00:31:13;;;;;;;0.20;0.20;;;5.80;99.90;;;;;;10364477;28;20222;-73
2020/12/05 00:36:16;;;;;;;1.17;0.50;;;5.90;99.90;;;;;;10365564;28;20550;-73
2020/12/05 00:41:20;;;;;;;4.70;1.17;;;6.10;99.90;;;;;;10364678;28;20570;-72
2020/12/05 00:46:22;;;;;;;0.50;0.40;;;5.90;99.90;;;;;;10364516;28;20203;-73
2020/12/05 00:51:25;;;;;;;2.37;0.57;;;5.90;99.90;;;;;;10364393;28;20325;-73
2020/12/05 00:56:28;;;;;;;1.50;0.80;;;5.90;99.90;;;;;;10364165;28;20578;-73
2020/12/05 01:01:30;;;;;;;0.43;0.43;;;5.90;99.90;;;;;;10371763;28;20286;-73
2020/12/05 01:06:34;;;;;;;0.83;0.83;;;5.90;99.90;;;;;;10377761;28;20241;-73
2020/12/05 01:11:37;;;;;;;0.50;0.43;;;6.20;99.90;;;;;;10353101;28;20203;-73
2020/12/05 01:16:40;;;;;;;0.63;0.63;;;6.10;99.90;;;;;;10347820;28;20203;-73
2020/12/05 01:21:45;;;;;;;0.47;0.47;;;6.00;99.90;;;;;;10364315;28;20207;-73
2020/12/05 01:26:48;;;;;;;0.67;0.63;;;6.10;99.90;;;;;;10342374;28;20566;-73
2020/12/05 01:31:51;;;;;;;1.53;0.70;;;6.00;99.90;;;;;;10372062;28;20229;-72
2020/12/05 01:36:53;;;;;;;6.53;0.77;;;5.80;99.90;;;;;;10372665;28;20194;-72
2020/12/05 01:41:57;;;;;;;0.20;0.20;;;5.70;99.90;;;;;;10371922;28;20199;-71
2020/12/05 01:46:59;;;;;;;0.93;0.57;;;5.60;99.90;;;;;;10372198;28;20225;-71
2020/12/05 01:52:02;;;;;;;0.50;0.40;;;5.70;99.90;;;;;;10364886;28;20206;-71
2020/12/05 01:57:06;;;;;;;0.57;0.57;;;5.60;99.90;;;;;;10371667;28;20195;-71
2020/12/05 02:02:08;;;;;;;0.30;0.30;;;5.70;99.90;;;;;;10371663;28;20681;-72
2020/12/05 02:07:27;;;;;;;0.60;0.60;;;5.70;99.90;;;;;;10352865;28;20309;-71
2020/12/05 02:12:35;;;;;;;0.20;0.20;;;5.60;99.90;;;;;;10353223;28;20198;-71
2020/12/05 02:17:43;;;;;;;1.00;0.97;;;5.50;99.90;;;;;;10370592;28;20209;-71
2020/12/05 02:22:48;;;;;;;0.50;0.50;;;5.50;99.90;;;;;;10352933;28;20274;-71
2020/12/05 02:27:52;;;;;;;0.50;0.47;;;5.50;99.90;;;;;;10352584;28;20269;-72
2020/12/05 02:32:54;;;;;;;0.70;0.50;;;5.50;99.90;;;;;;10370009;28;20203;-71
2020/12/05 02:38:05;;;;;;;0.20;0.13;;;5.40;99.90;;;;;;10360865;28;20225;-71
2020/12/05 02:43:08;;;;;;;0.27;0.27;;;5.40;99.90;;;;;;10407754;28;20205;-72
2020/12/05 02:48:11;;;;;;;0.20;0.20;;;5.30;99.90;;;;;;10408523;28;20644;-72
2020/12/05 02:53:13;;;;;;;0.20;0.10;;;5.20;99.90;;;;;;10408840;28;20195;-72
2020/12/05 02:58:17;;;;;;;0.40;0.30;;;5.30;99.90;;;;;;10368975;28;20206;-72
2020/12/05 03:03:19;;;;;;;0.23;0.20;;;5.60;99.90;;;;;;10393891;28;20229;-73
2020/12/05 03:08:22;;;;;;;0.53;0.43;;;5.60;99.90;;;;;;10412342;28;20230;-72
2020/12/05 03:13:27;;;;;;;0.37;0.37;;;5.40;99.90;;;;;;10408441;28;20567;-72
2020/12/05 03:18:29;;;;;;;1.07;0.60;;;5.30;99.90;;;;;;10408623;28;20284;-72
2020/12/05 03:23:32;;;;;;;0.33;0.27;;;5.20;99.90;;;;;;10389917;28;20201;-71
2020/12/05 03:28:38;;;;;;;0.20;0.10;;;5.20;99.90;;;;;;10407059;28;20313;-71
2020/12/05 03:33:42;;;;;;;0.20;0.20;;;5.20;99.90;;;;;;10385862;28;20202;-72
2020/12/05 03:38:46;;;;;;;0.20;0.20;;;5.10;99.90;;;;;;10367276;28;20205;-72
2020/12/05 03:43:49;;;;;;;0.20;0.20;;;5.20;99.90;;;;;;10367610;28;20199;-70
2020/12/05 03:48:52;;;;;;;0.40;0.40;;;5.30;99.90;;;;;;10406107;28;20236;-71
2020/12/05 03:53:54;;;;;;;0.33;0.33;;;5.30;99.90;;;;;;10405260;28;20194;-71
2020/12/05 03:58:58;;;;;;;0.30;0.30;;;5.20;99.90;;;;;;10369568;28;20218;-71
2020/12/05 04:04:00;;;;;;;0.47;0.47;;;5.20;99.90;;;;;;10380172;22;20257;-82
2020/12/05 04:09:04;;;;;;;0.37;0.37;;;5.10;99.90;;;;;;10365356;28;20779;-82
2020/12/05 04:14:08;;;;;;;0.27;0.17;;;5.10;99.90;;;;;;10394573;28;20195;-82
2020/12/05 04:19:11;;;;;;;1.17;1.13;;;5.10;99.90;;;;;;10390874;28;20666;-81
2020/12/05 04:24:13;;;;;;;1.50;1.10;;;5.10;99.90;;;;;;10397025;28;20199;-82
2020/12/05 04:29:17;;;;;;;0.30;0.30;;;5.00;99.90;;;;;;10366702;28;20306;-81
2020/12/05 04:34:19;;;;;;;0.20;0.10;;;4.90;99.90;;;;;;10376661;28;20309;-78
2020/12/05 04:39:21;;;;;;;0.30;0.30;;;4.90;99.90;;;;;;10367215;28;20187;-80
2020/12/05 04:44:26;;;;;;;0.80;0.60;;;5.00;99.90;;;;;;10381017;28;20210;-79
2020/12/05 04:49:30;;;;;;;0.20;0.10;;;5.00;99.90;;;;;;10372608;28;20592;-82
2020/12/05 04:54:32;;;;;;;0.20;0.10;;;4.90;99.90;;;;;;10381622;28;20552;-83
2020/12/05 04:59:36;;;;;;;0.87;0.30;;;4.90;99.90;;;;;;10395689;22;20289;-74
2020/12/05 05:04:39;;;;;;;1.13;0.40;;;5.00;99.90;;;;;;10405329;28;20210;-74
2020/12/05 05:09:52;;;;;;;0.20;0.10;;;5.00;99.90;;;;;;10404400;28;20296;-74
2020/12/05 05:14:55;;;;;;;0.30;0.30;;;5.00;99.90;;;;;;10405144;28;20190;-75
2020/12/05 05:19:58;;;;;;;0.20;0.10;;;5.20;99.90;;;;;;10404777;28;20205;-75
2020/12/05 05:25:03;;;;;;;0.30;0.23;;;5.10;99.90;;;;;;10403817;28;20222;-75
2020/12/05 05:30:08;;;;;;;0.27;0.27;;;5.10;99.90;;;;;;10404257;28;20304;-74
2020/12/05 05:35:13;;;;;;;1.13;0.40;;;5.10;99.90;;;;;;10391853;28;20185;-74
2020/12/05 05:40:26;;;;;;;0.20;0.13;;;5.00;99.90;;;;;;10403081;28;20190;-74
2020/12/05 05:45:29;;;;;;;9.00;0.80;;;5.00;99.90;;;;;;10403785;28;20194;-73
2020/12/05 05:50:33;;;;;;;0.20;0.13;;;5.10;99.90;;;;;;10419122;28;20232;-74
2020/12/05 05:55:43;;;;;;;0.30;0.30;;;5.20;99.90;;;;;;10419094;28;20226;-74
2020/12/05 06:00:48;;;;;;;0.30;0.30;;;5.30;99.90;;;;;;10403816;28;20276;-74
2020/12/05 06:05:51;;;;;;;1.33;1.23;;;5.40;99.90;;;;;;10403872;28;20678;-74
2020/12/05 06:10:58;;;;;;;0.23;0.23;;;5.50;99.90;;;;;;10403509;28;20226;-74
2020/12/05 06:16:03;;;;;;;0.70;0.70;;;5.60;99.90;;;;;;10417237;28;20194;-73
2020/12/05 06:21:05;;;;;;;0.67;0.40;;;5.90;99.90;;;;;;10450877;28;20619;-74
2020/12/05 06:26:09;;;;;;;0.50;0.50;;;5.90;99.90;;;;;;10466086;28;20201;-74
2020/12/05 06:31:12;;;;;;;0.30;0.30;;;5.90;99.90;;;;;;10450949;28;20653;-74
2020/12/05 06:36:40;;;;;;;0.43;0.43;;;5.70;99.90;;;;;;10403502;28;20709;-74
2020/12/05 06:41:45;;;;;;;7.53;0.70;;;5.70;99.90;;;;;;10410686;28;20305;-74
2020/12/05 06:46:52;;;;;;;0.63;0.40;;;5.70;99.90;;;;;;10425404;28;20200;-70
2020/12/05 06:51:55;;;;;;;0.20;0.20;;;5.60;99.90;;;;;;10410319;28;20268;-74
2020/12/05 06:57:12;;;;;;;0.20;0.10;;;5.70;99.90;;;;;;10410075;28;20220;-74
2020/12/05 07:02:28;;;;;;;0.20;0.20;;;5.70;99.90;;;;;;10409633;28;20221;-74
2020/12/05 07:07:31;;;;;;;0.20;0.10;;;5.70;99.90;;;;;;10409421;28;20201;-74
2020/12/05 07:12:36;;;;;;;0.20;0.10;;;5.70;99.90;;;;;;10409392;28;20688;-73
2020/12/05 07:17:39;;;;;;;0.20;0.10;;;5.80;99.90;;;;;;10409689;28;20310;-74
2020/12/05 07:22:43;;;;;;;0.67;0.60;;;5.90;99.90;;;;;;10408860;28;20193;-73
2020/12/05 07:27:47;;;;;;;0.57;0.47;;;5.80;99.90;;;;;;10401910;28;20276;-72
2020/12/05 07:32:51;;;;;;;0.20;0.10;;;5.60;99.90;;;;;;10417410;28;20190;-73
2020/12/05 07:37:53;;;;;;;0.30;0.30;;;5.60;99.90;;;;;;10445726;28;20189;-73
2020/12/05 07:42:56;;;;;;;0.50;0.50;;;5.70;99.90;;;;;;10447065;28;20615;-72
2020/12/05 07:48:10;;;;;;;1.90;0.63;;;5.70;99.90;;;;;;10447714;28;20221;-74
2020/12/05 07:53:26;;;;;;;0.27;0.27;;;5.80;99.90;;;;;;10411952;28;20194;-73
2020/12/05 07:58:29;;;;;;;0.20;0.10;;;6.00;99.90;;;;;;10424505;28;20248;-74
2020/12/05 08:04:11;;;;;;;0.93;0.33;;;6.10;99.90;;;;;;10420705;28;20230;-73
2020/12/05 08:09:22;;;;;;;0.60;0.60;;;6.20;99.90;;;;;;10400494;28;20468;-75
2020/12/05 08:14:31;;;;;;;2.30;1.37;;;6.30;99.90;;;;;;10422638;28;20636;-74
2020/12/05 08:19:34;;;;;;;2.47;0.90;;;6.50;99.90;;;;;;10406214;28;20402;-75
2020/12/05 08:24:50;;;;;;;2.37;2.17;;;6.70;99.90;;;;;;10435090;28;20204;-75
2020/12/05 08:29:56;;;;;;;0.20;0.10;;;6.80;99.90;;;;;;10446030;28;20263;-72
2020/12/05 08:35:04;;;;;;;0.53;0.40;;;6.90;99.90;;;;;;10445558;28;20612;-72
2020/12/05 08:40:07;;;;;;;8.43;1.13;;;7.00;99.90;;;;;;10397788;28;20295;-71
2020/12/05 08:45:15;;;;;;;0.73;0.43;;;7.00;99.90;;;;;;10403885;28;20194;-71
2020/12/05 08:50:28;;;;;;;0.20;0.20;;;7.10;99.90;;;;;;10404726;28;20311;-71
2020/12/05 08:55:32;;;;;;;0.47;0.30;;;7.20;99.90;;;;;;10405035;28;20201;-71
2020/12/05 09:00:36;;;;;;;0.20;0.10;;;7.30;99.90;;;;;;10404305;28;20333;-71
2020/12/05 09:05:45;;;;;;;0.50;0.50;;;7.60;99.90;;;;;;10404314;28;20550;-72
2020/12/05 09:10:50;;;;;;;0.20;0.17;;;7.80;99.90;;;;;;10404308;28;20316;-72
2020/12/05 09:16:01;;;;;;;1.33;0.77;;;7.90;99.90;;;;;;10398784;28;20194;-72
2020/12/05 09:21:11;;;;;;;3.67;0.63;;;7.90;99.90;;;;;;10397819;28;20704;-72
2020/12/05 09:26:15;;;;;;;0.60;0.27;;;8.10;99.90;;;;;;10405206;28;20286;-72
2020/12/05 09:31:17;;;;;;;0.77;0.47;;;8.30;99.90;;;;;;10419479;28;20228;-69
2020/12/05 09:36:20;;;;;;;0.30;0.30;;;8.30;99.90;;;;;;10403707;28;20202;-71
2020/12/05 09:41:23;;;;;;;0.47;0.37;;;8.50;99.90;;;;;;10418813;28;20565;-71
2020/12/05 09:46:26;;;;;;;0.50;0.50;;;8.60;99.90;;;;;;10403877;28;20194;-72
2020/12/05 09:51:29;;;;;;;0.37;0.37;;;8.70;99.90;;;;;;10410767;28;20234;-72
2020/12/05 09:56:33;;;;;;;1.23;0.60;;;8.80;99.90;;;;;;10411897;28;20248;-72
2020/12/05 10:01:35;;;;;;;0.47;0.30;;;8.90;99.90;;;;;;10411744;28;20226;-72
2020/12/05 10:06:37;;;;;;;1.13;0.93;;;9.00;99.90;;;;;;10426148;28;20196;-73
2020/12/05 10:11:41;;;;;;;0.30;0.30;;;9.20;99.90;;;;;;10429547;28;20308;-72
2020/12/05 10:16:45;;;;;;;0.40;0.40;;;9.40;99.90;;;;;;10433109;28;20192;-72
2020/12/05 10:21:48;;;;;;;0.53;0.53;;;9.30;99.90;;;;;;10426661;28;20647;-72
2020/12/05 10:26:53;;;;;;;0.27;0.27;;;9.20;99.90;;;;;;10420050;28;20194;-73
2020/12/05 10:31:55;;;;;;;0.27;0.27;;;9.10;99.90;;;;;;10428599;28;20306;-72
2020/12/05 10:36:58;;;;;;;0.20;0.10;;;9.10;99.90;;;;;;10426229;28;20199;-71
2020/12/05 10:42:01;;;;;;;2.30;1.10;;;9.10;99.90;;;;;;10431324;28;20193;-70
2020/12/05 10:47:04;;;;;;;2.20;0.57;;;9.10;99.90;;;;;;10425083;28;20194;-72
2020/12/05 10:52:06;;;;;;;1.07;1.03;;;9.10;99.90;;;;;;10429824;28;20224;-71
2020/12/05 10:57:10;;;;;;;0.63;0.50;;;9.40;99.90;;;;;;10425637;28;20300;-72
2020/12/05 11:02:12;;;;;;;1.00;0.97;;;9.50;99.90;;;;;;10427476;28;20224;-72
2020/12/05 11:07:15;;;;;;;0.40;0.40;;;9.60;99.90;;;;;;10425087;28;20281;-70
2020/12/05 11:12:18;;;;;;;2.47;1.23;;;10.00;99.90;;;;;;10428539;28;20223;-72
2020/12/05 11:17:21;;;;;;;0.63;0.63;;;9.90;99.90;;;;;;10422868;28;20193;-70
2020/12/05 11:22:24;;;;;;;0.70;0.30;;;10.70;99.90;;;;;;10427951;28;20551;-73
2020/12/05 11:27:28;;;;;;;0.20;0.20;;;10.90;99.90;;;;;;10440264;28;20595;-71
2020/12/05 11:32:30;;;;;;;0.77;0.77;;;11.40;99.90;;;;;;10433323;28;20224;-71
2020/12/05 11:37:33;;;;;;;2.57;1.03;;;11.50;99.90;;;;;;10410601;28;20586;-73
2020/12/05 11:42:36;;;;;;;0.67;0.33;;;11.30;99.90;;;;;;10415859;28;20285;-71
2020/12/05 11:47:39;;;;;;;0.40;0.30;;;11.30;99.90;;;;;;10434442;28;20199;-71
2020/12/05 11:52:45;;;;;;;1.13;0.90;;;11.60;99.90;;;;;;10406567;28;20344;-72
2020/12/05 11:57:50;;;;;;;1.40;0.97;;;11.40;99.90;;;;;;10409304;28;20194;-73
2020/12/05 12:02:53;;;;;;;0.80;0.70;;;11.20;99.90;;;;;;10425213;28;20344;-72
2020/12/05 12:07:56;;;;;;;1.37;1.27;;;11.30;99.90;;;;;;10446244;28;20241;-72
2020/12/05 12:13:00;;;;;;;0.57;0.47;;;11.40;99.90;;;;;;10413427;28;20312;-72
2020/12/05 12:18:05;;;;;;;0.50;0.43;;;11.50;99.90;;;;;;10444100;28;20194;-70
2020/12/05 12:23:10;;;;;;;0.40;0.40;;;11.50;99.90;;;;;;10443422;28;20288;-72
2020/12/05 12:28:14;;;;;;;0.40;0.40;;;12.00;99.90;;;;;;10405996;28;20209;-72
2020/12/05 12:33:17;;;;;;;0.83;0.63;;;12.50;99.90;;;;;;10404674;28;20249;-72
2020/12/05 12:38:19;;;;;;;0.47;0.47;;;13.00;99.90;;;;;;10405083;28;20209;-73
2020/12/05 12:43:23;;;;;;;1.33;0.87;;;13.00;99.90;;;;;;10404886;28;20190;-72
2020/12/05 12:48:42;;;;;;;2.47;0.83;;;12.80;99.90;;;;;;10405106;28;20198;-72
2020/12/05 12:53:44;;;;;;;0.40;0.40;;;12.80;99.90;;;;;;10429522;28;20276;-73
2020/12/05 12:58:49;;;;;;;2.40;0.57;;;12.90;99.90;;;;;;10444085;28;20204;-72
2020/12/05 13:03:53;;;;;;;3.37;1.07;;;12.60;99.90;;;;;;10442142;28;20237;-71
2020/12/05 13:08:56;;;;;;;0.20;0.20;;;12.50;99.90;;;;;;10442189;28;20712;-71
2020/12/05 13:14:01;;;;;;;0.60;0.60;;;12.20;99.90;;;;;;10444165;28;20197;-72
2020/12/05 13:19:03;;;;;;;1.50;0.87;;;12.70;99.90;;;;;;10404505;28;20280;-71
2020/12/05 13:24:06;;;;;;;0.87;0.50;;;12.70;99.90;;;;;;10403697;28;20560;-71
2020/12/05 13:29:09;;;;;;;1.03;1.03;;;13.20;99.90;;;;;;10413479;28;20225;-70
2020/12/05 13:34:12;;;;;;;0.33;0.17;;;13.20;99.90;;;;;;10412061;28;20312;-71
2020/12/05 13:39:15;;;;;;;0.60;0.60;;;13.20;99.90;;;;;;10402939;28;20202;-71
2020/12/05 13:44:18;;;;;;;0.70;0.30;;;13.60;99.90;;;;;;10403650;28;20218;-71
2020/12/05 13:49:21;;;;;;;3.17;1.47;;;13.30;99.90;;;;;;10404799;28;20229;-71
2020/12/05 13:54:24;;;;;;;1.03;0.70;;;13.40;99.90;;;;;;10408953;28;20206;-69
2020/12/05 13:59:32;;;;;;;0.20;0.20;;;14.00;99.90;;;;;;10404600;28;20207;-73
2020/12/05 14:04:36;;;;;;;0.73;0.50;;;14.80;99.90;;;;;;10392515;28;20616;-72
2020/12/05 14:09:39;;;;;;;0.20;0.10;;;15.20;99.90;;;;;;10407550;28;20225;-74
2020/12/05 14:14:45;;;;;;;0.27;0.23;;;15.80;99.90;;;;;;10399609;28;20200;-71
2020/12/05 14:19:48;;;;;;;1.63;0.77;;;15.70;99.90;;;;;;10402802;28;20190;-71
2020/12/05 14:24:55;;;;;;;0.60;0.50;;;16.80;99.90;;;;;;10407086;28;20672;-71
2020/12/05 14:30:00;;;;;;;0.40;0.10;;;16.40;99.90;;;;;;10406547;28;20703;-72
2020/12/05 14:35:04;;;;;;;2.30;0.37;;;16.70;99.90;;;;;;10404835;28;20210;-71
2020/12/05 14:40:08;;;;;;;1.40;0.67;;;15.70;99.90;;;;;;10449975;28;20202;-72
2020/12/05 14:45:11;;;;;;;1.30;0.40;;;14.40;99.90;;;;;;10450410;28;20642;-72
2020/12/05 14:50:14;;;;;;;1.90;0.77;;;13.50;99.90;;;;;;10447984;28;20607;-72
2020/12/05 14:55:17;;;;;;;0.20;0.20;;;13.90;99.90;;;;;;10450231;28;20190;-74
2020/12/05 15:00:21;;;;;;;0.30;0.20;;;14.00;99.90;;;;;;10417639;28;20579;-73
2020/12/05 15:05:24;;;;;;;0.40;0.30;;;14.60;99.90;;;;;;10447848;28;20201;-73
2020/12/05 15:10:27;;;;;;;1.07;0.53;;;14.50;99.90;;;;;;10417658;28;20573;-73
2020/12/05 15:15:31;;;;;;;3.70;1.23;;;15.00;99.90;;;;;;10426870;28;20283;-73
2020/12/05 15:20:50;;;;;;;1.67;1.10;;;15.40;99.90;;;;;;10417203;28;20252;-74
2020/12/05 15:25:54;;;;;;;1.60;1.50;;;15.10;99.90;;;;;;10424540;28;20194;-73
2020/12/05 15:30:57;;;;;;;1.60;0.93;;;15.30;99.90;;;;;;10424553;28;20301;-73
2020/12/05 15:36:03;;;;;;;0.33;0.33;;;14.70;99.90;;;;;;10423974;28;20198;-72
2020/12/05 15:41:08;;;;;;;0.67;0.67;;;13.50;99.90;;;;;;10426444;28;20198;-72
2020/12/05 15:46:16;;;;;;;0.67;0.50;;;13.00;99.90;;;;;;10427335;28;20188;-71
2020/12/05 15:51:19;;;;;;;2.00;0.90;;;12.20;99.90;;;;;;10415977;28;20279;-71
2020/12/05 15:56:22;;;;;;;3.00;0.87;;;11.40;99.90;;;;;;10406097;28;20198;-71
2020/12/05 16:01:40;;;;;;;1.33;0.73;;;11.10;99.90;;;;;;10403969;28;20246;-71
2020/12/05 16:06:43;;;;;;;6.97;1.30;;;10.90;99.90;;;;;;10405475;28;20257;-71
2020/12/05 16:11:47;;;;;;;0.40;0.30;;;10.70;99.90;;;;;;10404248;28;20230;-72
2020/12/05 16:16:51;;;;;;;0.67;0.33;;;10.50;99.90;;;;;;10403738;28;20195;-71
2020/12/05 16:21:54;;;;;;;10.83;0.50;;;10.30;99.90;;;;;;10410056;28;20208;-71
2020/12/05 16:26:56;;;;;;;0.77;0.60;;;10.20;99.90;;;;;;10423565;28;20290;-71
2020/12/05 16:32:00;;;;;;;1.30;0.40;;;10.10;99.90;;;;;;10419052;28;20225;-69
2020/12/05 16:37:03;;;;;;;0.20;0.20;;;9.80;99.90;;;;;;10437495;28;20630;-70
2020/12/05 16:42:05;;;;;;;7.83;0.63;;;9.60;99.90;;;;;;10418558;28;20197;-70
2020/12/05 16:47:09;;;;;;;0.90;0.90;;;9.40;99.90;;;;;;10403298;28;20268;-71
2020/12/05 16:52:11;;;;;;;0.30;0.30;;;9.20;99.90;;;;;;10419037;28;20220;-70
2020/12/05 16:57:15;;;;;;;1.13;0.90;;;9.10;99.90;;;;;;10407458;28;20198;-71
2020/12/05 17:02:18;;;;;;;0.83;0.53;;;9.30;99.90;;;;;;10423340;28;20222;-71
2020/12/05 17:07:21;;;;;;;0.67;0.67;;;9.30;99.90;;;;;;10402656;28;20225;-71
2020/12/05 17:12:23;;;;;;;0.80;0.67;;;9.20;99.90;;;;;;10402998;28;20226;-71
2020/12/05 17:17:27;;;;;;;0.40;0.40;;;9.20;99.90;;;;;;10418038;28;20201;-71
2020/12/05 17:22:30;;;;;;;0.73;0.53;;;9.00;99.90;;;;;;10442425;28;20197;-71
2020/12/05 17:27:33;;;;;;;1.43;1.33;;;9.10;99.90;;;;;;10417111;28;20185;-70
2020/12/05 17:32:37;;;;;;;0.20;0.10;;;9.10;99.90;;;;;;10413749;28;20221;-72
2020/12/05 17:37:39;;;;;;;0.20;0.10;;;9.30;99.90;;;;;;10440288;28;20210;-71
2020/12/05 17:42:42;;;;;;;0.20;0.10;;;9.40;99.90;;;;;;10456986;28;20236;-73
2020/12/05 17:47:45;;;;;;;0.27;0.10;;;9.50;99.90;;;;;;10456215;28;20294;-72
2020/12/05 17:52:48;;;;;;;0.67;0.60;;;9.50;99.90;;;;;;10394790;28;20217;-69
2020/12/05 17:57:50;;;;;;;0.20;0.10;;;9.50;99.90;;;;;;10401544;28;20561;-71
2020/12/05 18:02:54;;;;;;;0.27;0.27;;;9.60;99.90;;;;;;10414801;28;20221;-70
2020/12/05 18:07:57;;;;;;;0.43;0.20;;;9.50;99.90;;;;;;10440722;28;20197;-70
2020/12/05 18:13:00;;;;;;;0.87;0.50;;;9.50;99.90;;;;;;10448587;28;20229;-72
2020/12/05 18:18:03;;;;;;;1.40;0.50;;;9.50;99.90;;;;;;10446910;28;20194;-70
2020/12/05 18:23:06;;;;;;;0.60;0.40;;;9.50;99.90;;;;;;10448040;28;20676;-73
2020/12/05 18:28:09;;;;;;;0.57;0.57;;;9.50;99.90;;;;;;10449158;28;20197;-72
2020/12/05 18:33:12;;;;;;;1.23;0.47;;;9.40;99.90;;;;;;10464132;28;20227;-71
2020/12/05 18:38:15;;;;;;;0.30;0.20;;;9.50;99.90;;;;;;10447758;28;20275;-73
2020/12/05 18:43:17;;;;;;;0.20;0.10;;;9.40;99.90;;;;;;10462697;28;20201;-73
2020/12/05 18:48:21;;;;;;;0.37;0.27;;;9.40;99.90;;;;;;10446915;28;20367;-73
2020/12/05 18:53:23;;;;;;;0.30;0.23;;;9.40;99.90;;;;;;10427719;28;20261;-73
2020/12/05 18:58:26;;;;;;;1.43;0.67;;;9.30;99.90;;;;;;10407437;28;20190;-69
2020/12/05 19:03:32;;;;;;;0.20;0.10;;;9.20;99.90;;;;;;10407697;28;20602;-70
2020/12/05 19:08:35;;;;;;;1.83;1.00;;;9.30;99.90;;;;;;10406997;28;20225;-71
2020/12/05 19:13:37;;;;;;;0.20;0.13;;;9.20;99.90;;;;;;10407260;28;20228;-72
2020/12/05 19:18:42;;;;;;;0.20;0.20;;;9.20;99.90;;;;;;10406645;28;20209;-71
2020/12/05 19:23:45;;;;;;;0.30;0.30;;;9.30;99.90;;;;;;10406063;28;20213;-71
2020/12/05 19:28:48;;;;;;;0.20;0.10;;;9.30;99.90;;;;;;10406634;28;20209;-70
2020/12/05 19:33:51;;;;;;;0.30;0.20;;;9.20;99.90;;;;;;10404656;28;20222;-70
2020/12/05 19:38:53;;;;;;;0.20;0.10;;;9.20;99.90;;;;;;10420073;28;20282;-71
2020/12/05 19:43:56;;;;;;;0.20;0.13;;;9.20;99.90;;;;;;10406060;28;20235;-73
2020/12/05 19:49:01;;;;;;;0.20;0.10;;;9.20;99.90;;;;;;10406648;28;20202;-72
2020/12/05 19:54:03;;;;;;;0.20;0.10;;;9.10;99.90;;;;;;10420772;28;20863;-69
2020/12/05 19:59:07;;;;;;;0.20;0.10;;;9.10;99.90;;;;;;10449600;28;20204;-70
2020/12/05 20:04:10;;;;;;;0.30;0.30;;;9.00;99.90;;;;;;10441461;28;20237;-68
2020/12/05 20:09:13;;;;;;;0.20;0.10;;;8.90;99.90;;;;;;10449881;28;20276;-68
2020/12/05 20:14:16;;;;;;;0.30;0.20;;;8.90;99.90;;;;;;10449327;28;20251;-70
2020/12/05 20:19:19;;;;;;;0.20;0.10;;;8.90;99.90;;;;;;10450012;28;20200;-69
2020/12/05 20:24:22;;;;;;;0.20;0.10;;;8.80;99.90;;;;;;10464640;28;20204;-72
2020/12/05 20:29:25;;;;;;;0.20;0.10;;;8.80;99.90;;;;;;10429623;28;20196;-71
2020/12/05 20:34:29;;;;;;;0.47;0.13;;;8.80;99.90;;;;;;10430664;28;20199;-72
2020/12/05 20:39:32;;;;;;;0.20;0.10;;;8.70;99.90;;;;;;10427721;28;20217;-72
2020/12/05 20:44:35;;;;;;;1.07;0.87;;;8.70;99.90;;;;;;10425521;28;20209;-70
2020/12/05 20:49:39;;;;;;;0.30;0.30;;;8.60;99.90;;;;;;10433648;28;20228;-72
2020/12/05 20:54:42;;;;;;;0.20;0.20;;;8.50;99.90;;;;;;10441208;28;20564;-70
2020/12/05 20:59:44;;;;;;;0.40;0.40;;;8.60;99.90;;;;;;10433793;28;20226;-70
2020/12/05 21:04:48;;;;;;;0.23;0.20;;;8.50;99.90;;;;;;10424126;28;20209;-71
2020/12/05 21:09:50;;;;;;;0.20;0.10;;;8.50;99.90;;;;;;10425625;28;20222;-73
2020/12/05 21:14:53;;;;;;;0.93;0.70;;;8.50;99.90;;;;;;10426885;28;20260;-73
2020/12/05 21:19:56;;;;;;;0.50;0.40;;;8.50;99.90;;;;;;10428627;28;20281;-70
2020/12/05 21:24:59;;;;;;;5.00;0.77;;;8.50;99.90;;;;;;10423810;28;20732;-72
2020/12/05 21:30:01;;;;;;;0.20;0.20;;;8.40;99.90;;;;;;10428030;28;20213;-71
2020/12/05 21:35:06;;;;;;;4.43;0.30;;;8.50;99.90;;;;;;10410807;28;20214;-74
2020/12/05 21:40:08;;;;;;;0.20;0.20;;;8.40;99.90;;;;;;10417347;28;20206;-71
2020/12/05 21:45:11;;;;;;;3.40;0.77;;;8.50;99.90;;;;;;10454314;28;20197;-71
2020/12/05 21:50:16;;;;;;;1.70;0.30;;;8.40;99.90;;;;;;10434827;28;20221;-72
2020/12/05 21:55:18;;;;;;;0.50;0.40;;;8.50;99.90;;;;;;10434485;28;20476;-73
2020/12/05 22:00:21;;;;;;;1.07;0.63;;;8.40;99.90;;;;;;10434918;28;20225;-74
2020/12/05 22:05:24;;;;;;;6.10;0.77;;;8.40;99.90;;;;;;10432436;28;20270;-73
2020/12/05 22:10:27;;;;;;;0.20;0.20;;;8.30;99.90;;;;;;10435550;28;20218;-72
2020/12/05 22:15:29;;;;;;;0.20;0.10;;;8.30;99.90;;;;;;10433094;28;20278;-73
2020/12/05 22:20:33;;;;;;;1.50;1.00;;;8.40;99.90;;;;;;10433562;28;20642;-74
2020/12/05 22:25:35;;;;;;;0.20;0.10;;;8.30;99.90;;;;;;10431039;28;20193;-71
2020/12/05 22:30:38;;;;;;;0.30;0.20;;;8.30;99.90;;;;;;10434584;28;20225;-74
2020/12/05 22:35:41;;;;;;;0.20;0.17;;;8.20;99.90;;;;;;10433661;28;20203;-73
2020/12/05 22:40:44;;;;;;;0.30;0.30;;;8.00;99.90;;;;;;10434894;28;20639;-72
2020/12/05 22:45:46;;;;;;;0.20;0.20;;;8.00;99.90;;;;;;10432537;28;20197;-72
2020/12/05 22:50:50;;;;;;;0.20;0.20;;;7.80;99.90;;;;;;10457825;28;20209;-72
2020/12/05 22:55:52;;;;;;;0.30;0.30;;;7.40;99.90;;;;;;10432050;28;20191;-72
2020/12/05 23:00:55;;;;;;;1.00;0.50;;;7.20;99.90;;;;;;10442634;28;20244;-73
2020/12/05 23:05:59;;;;;;;0.40;0.40;;;7.00;99.90;;;;;;10433975;28;20200;-72
2020/12/05 23:11:02;;;;;;;2.93;1.03;;;6.90;99.90;;;;;;10432205;28;20335;-72
2020/12/05 23:16:08;;;;;;;0.50;0.40;;;7.00;99.90;;;;;;10432168;28;20201;-72
2020/12/05 23:21:12;;;;;;;0.30;0.30;;;7.10;99.90;;;;;;10428725;28;20285;-74
2020/12/05 23:26:15;;;;;;;0.20;0.20;;;7.20;99.90;;;;;;10426737;28;20192;-71
2020/12/05 23:31:36;;;;;;;0.20;0.20;;;7.30;99.90;;;;;;10438495;28;20309;-73
2020/12/05 23:36:41;;;;;;;0.20;0.10;;;7.20;99.90;;;;;;10453580;28;20202;-72
2020/12/05 23:41:46;;;;;;;0.20;0.10;;;7.10;99.90;;;;;;10453236;28;20269;-71
2020/12/05 23:46:49;;;;;;;0.70;0.53;;;7.00;99.90;;;;;;10452441;28;20198;-70
2020/12/05 23:51:52;;;;;;;0.20;0.10;;;7.00;99.90;;;;;;10452610;28;20228;-73
2020/12/05 23:56:57;;;;;;;0.20;0.10;;;7.10;99.90;;;;;;10452273;28;20189;-72
